sensor_id;sensor_type;location;lat;lon;timestamp;temperature;humidity
1411;DHT22;700;51.906;8.404;2023-12-22T00:00:52;9.40;99.90
1411;DHT22;700;51.906;8.404;2023-12-22T00:05:54;9.20;99.90
1411;DHT22;700;51.906;8.404;2023-12-22T00:10:57;9.10;99.90
1411;DHT22;700;51.906;8.404;2023-12-22T00:16:00;9.10;99.90
1411;DHT22;700;51.906;8.404;2023-12-22T00:21:00;9.10;99.90
1411;DHT22;700;51.906;8.404;2023-12-22T00:26:05;9.00;99.90
1411;DHT22;700;51.906;8.404;2023-12-22T00:31:07;9.10;99.90
1411;DHT22;700;51.906;8.404;2023-12-22T00:36:08;9.10;99.90
1411;DHT22;700;51.906;8.404;2023-12-22T00:41:10;9.20;99.90
1411;DHT22;700;51.906;8.404;2023-12-22T00:46:13;9.00;99.90
1411;DHT22;700;51.906;8.404;2023-12-22T00:51:16;9.00;99.90
1411;DHT22;700;51.906;8.404;2023-12-22T00:56:16;8.90;99.90
1411;DHT22;700;51.906;8.404;2023-12-22T01:01:19;9.00;99.90
1411;DHT22;700;51.906;8.404;2023-12-22T01:06:21;9.00;99.90
1411;DHT22;700;51.906;8.404;2023-12-22T01:11:22;8.90;99.90
1411;DHT22;700;51.906;8.404;2023-12-22T01:16:22;8.90;99.90
1411;DHT22;700;51.906;8.404;2023-12-22T01:21:24;8.70;99.90
1411;DHT22;700;51.906;8.404;2023-12-22T01:26:25;8.70;99.90
1411;DHT22;700;51.906;8.404;2023-12-22T01:31:28;8.60;99.90
1411;DHT22;700;51.906;8.404;2023-12-22T01:36:28;8.80;99.90
1411;DHT22;700;51.906;8.404;2023-12-22T01:41:29;8.80;99.90
1411;DHT22;700;51.906;8.404;2023-12-22T01:46:30;8.90;99.90
1411;DHT22;700;51.906;8.404;2023-12-22T01:51:36;8.90;99.90
1411;DHT22;700;51.906;8.404;2023-12-22T01:56:37;8.60;99.90
1411;DHT22;700;51.906;8.404;2023-12-22T02:01:39;8.10;99.90
1411;DHT22;700;51.906;8.404;2023-12-22T02:06:42;7.50;99.90
1411;DHT22;700;51.906;8.404;2023-12-22T02:11:43;7.20;99.90
1411;DHT22;700;51.906;8.404;2023-12-22T02:22:04;7.30;99.90
1411;DHT22;700;51.906;8.404;2023-12-22T02:32:28;7.60;99.90
1411;DHT22;700;51.906;8.404;2023-12-22T02:37:31;7.80;99.90
1411;DHT22;700;51.906;8.404;2023-12-22T02:42:33;7.80;99.90
1411;DHT22;700;51.906;8.404;2023-12-22T02:47:34;7.90;99.90
1411;DHT22;700;51.906;8.404;2023-12-22T02:52:37;7.90;99.90
1411;DHT22;700;51.906;8.404;2023-12-22T02:57:40;8.10;99.90
1411;DHT22;700;51.906;8.404;2023-12-22T03:02:43;8.20;99.90
1411;DHT22;700;51.906;8.404;2023-12-22T03:07:46;8.30;99.90
1411;DHT22;700;51.906;8.404;2023-12-22T03:12:47;8.30;99.90
1411;DHT22;700;51.906;8.404;2023-12-22T03:17:47;8.30;99.90
1411;DHT22;700;51.906;8.404;2023-12-22T03:22:48;8.30;99.90
1411;DHT22;700;51.906;8.404;2023-12-22T03:27:49;8.20;99.90
1411;DHT22;700;51.906;8.404;2023-12-22T03:32:52;8.10;99.90
1411;DHT22;700;51.906;8.404;2023-12-22T03:37:54;8.10;99.90
1411;DHT22;700;51.906;8.404;2023-12-22T03:42:55;8.10;99.90
1411;DHT22;700;51.906;8.404;2023-12-22T03:47:56;8.10;99.90
1411;DHT22;700;51.906;8.404;2023-12-22T03:52:56;8.10;99.90
1411;DHT22;700;51.906;8.404;2023-12-22T03:57:57;8.20;99.90
1411;DHT22;700;51.906;8.404;2023-12-22T04:02:57;8.40;99.90
1411;DHT22;700;51.906;8.404;2023-12-22T04:07:58;8.50;99.90
1411;DHT22;700;51.906;8.404;2023-12-22T04:13:03;8.60;99.90
1411;DHT22;700;51.906;8.404;2023-12-22T04:18:04;8.50;99.90
1411;DHT22;700;51.906;8.404;2023-12-22T04:23:05;8.40;99.90
1411;DHT22;700;51.906;8.404;2023-12-22T04:28:08;8.40;99.90
1411;DHT22;700;51.906;8.404;2023-12-22T04:33:09;8.30;99.90
1411;DHT22;700;51.906;8.404;2023-12-22T04:38:09;8.40;99.90
1411;DHT22;700;51.906;8.404;2023-12-22T04:43:10;8.30;99.90
1411;DHT22;700;51.906;8.404;2023-12-22T04:48:10;8.20;99.90
1411;DHT22;700;51.906;8.404;2023-12-22T04:53:11;8.20;99.90
1411;DHT22;700;51.906;8.404;2023-12-22T04:58:11;8.10;99.90
1411;DHT22;700;51.906;8.404;2023-12-22T05:03:14;7.90;99.90
1411;DHT22;700;51.906;8.404;2023-12-22T05:08:15;7.80;99.90
1411;DHT22;700;51.906;8.404;2023-12-22T05:13:16;7.70;99.90
1411;DHT22;700;51.906;8.404;2023-12-22T05:18:17;7.60;99.90
1411;DHT22;700;51.906;8.404;2023-12-22T05:23:17;7.50;99.90
1411;DHT22;700;51.906;8.404;2023-12-22T05:28:18;7.60;99.90
1411;DHT22;700;51.906;8.404;2023-12-22T05:33:21;7.60;99.90
1411;DHT22;700;51.906;8.404;2023-12-22T05:38:22;7.40;99.90
1411;DHT22;700;51.906;8.404;2023-12-22T05:43:22;7.50;99.90
1411;DHT22;700;51.906;8.404;2023-12-22T05:48:23;7.40;99.90
1411;DHT22;700;51.906;8.404;2023-12-22T05:53:24;7.60;99.90
1411;DHT22;700;51.906;8.404;2023-12-22T05:58:24;7.60;99.90
1411;DHT22;700;51.906;8.404;2023-12-22T06:03:27;7.70;99.90
1411;DHT22;700;51.906;8.404;2023-12-22T06:08:28;7.70;99.90
1411;DHT22;700;51.906;8.404;2023-12-22T06:13:29;7.80;99.90
1411;DHT22;700;51.906;8.404;2023-12-22T06:18:32;7.80;99.90
1411;DHT22;700;51.906;8.404;2023-12-22T06:23:35;7.80;99.90
1411;DHT22;700;51.906;8.404;2023-12-22T06:28:36;8.00;99.90
1411;DHT22;700;51.906;8.404;2023-12-22T06:33:41;7.90;99.90
1411;DHT22;700;51.906;8.404;2023-12-22T06:38:44;8.00;99.90
1411;DHT22;700;51.906;8.404;2023-12-22T06:43:45;8.00;99.90
1411;DHT22;700;51.906;8.404;2023-12-22T06:48:46;8.00;99.90
1411;DHT22;700;51.906;8.404;2023-12-22T06:53:50;8.20;99.90
1411;DHT22;700;51.906;8.404;2023-12-22T06:58:52;8.30;99.90
1411;DHT22;700;51.906;8.404;2023-12-22T07:03:55;8.30;99.90
1411;DHT22;700;51.906;8.404;2023-12-22T07:14:13;8.40;99.90
1411;DHT22;700;51.906;8.404;2023-12-22T07:19:14;8.50;99.90
1411;DHT22;700;51.906;8.404;2023-12-22T07:24:15;8.40;99.90
1411;DHT22;700;51.906;8.404;2023-12-22T07:29:18;8.70;99.90
1411;DHT22;700;51.906;8.404;2023-12-22T07:34:19;8.70;99.90
1411;DHT22;700;51.906;8.404;2023-12-22T07:39:22;8.70;99.90
1411;DHT22;700;51.906;8.404;2023-12-22T07:44:22;8.70;99.90
1411;DHT22;700;51.906;8.404;2023-12-22T07:49:27;8.70;99.90
1411;DHT22;700;51.906;8.404;2023-12-22T07:54:29;8.80;99.90
1411;DHT22;700;51.906;8.404;2023-12-22T07:59:32;8.80;99.90
1411;DHT22;700;51.906;8.404;2023-12-22T08:04:33;8.90;99.90
1411;DHT22;700;51.906;8.404;2023-12-22T08:09:34;9.00;99.90
1411;DHT22;700;51.906;8.404;2023-12-22T08:14:34;9.20;99.90
1411;DHT22;700;51.906;8.404;2023-12-22T08:19:36;9.20;99.90
1411;DHT22;700;51.906;8.404;2023-12-22T08:24:37;9.30;99.90
1411;DHT22;700;51.906;8.404;2023-12-22T08:29:40;9.60;99.90
1411;DHT22;700;51.906;8.404;2023-12-22T08:34:41;9.80;99.90
1411;DHT22;700;51.906;8.404;2023-12-22T08:39:44;9.90;99.90
1411;DHT22;700;51.906;8.404;2023-12-22T08:44:45;9.80;99.90
1411;DHT22;700;51.906;8.404;2023-12-22T08:49:45;9.60;99.90
1411;DHT22;700;51.906;8.404;2023-12-22T08:54:46;9.50;99.90
1411;DHT22;700;51.906;8.404;2023-12-22T08:59:46;9.50;99.90
1411;DHT22;700;51.906;8.404;2023-12-22T09:04:50;9.40;99.90
1411;DHT22;700;51.906;8.404;2023-12-22T09:09:51;9.40;99.90
1411;DHT22;700;51.906;8.404;2023-12-22T09:14:51;9.40;99.90
1411;DHT22;700;51.906;8.404;2023-12-22T09:19:54;9.50;99.90
1411;DHT22;700;51.906;8.404;2023-12-22T09:24:58;9.80;99.90
1411;DHT22;700;51.906;8.404;2023-12-22T09:29:58;9.80;99.90
1411;DHT22;700;51.906;8.404;2023-12-22T09:34:59;9.70;99.90
1411;DHT22;700;51.906;8.404;2023-12-22T09:40:01;9.60;99.90
1411;DHT22;700;51.906;8.404;2023-12-22T09:45:02;9.40;99.90
1411;DHT22;700;51.906;8.404;2023-12-22T09:50:05;9.40;99.90
1411;DHT22;700;51.906;8.404;2023-12-22T09:55:08;9.50;99.90
1411;DHT22;700;51.906;8.404;2023-12-22T10:00:11;9.70;99.90
1411;DHT22;700;51.906;8.404;2023-12-22T10:05:15;9.90;99.90
1411;DHT22;700;51.906;8.404;2023-12-22T10:10:17;10.10;99.90
1411;DHT22;700;51.906;8.404;2023-12-22T10:15:19;10.10;99.90
1411;DHT22;700;51.906;8.404;2023-12-22T10:20:26;10.20;99.90
1411;DHT22;700;51.906;8.404;2023-12-22T10:25:28;10.20;99.90
1411;DHT22;700;51.906;8.404;2023-12-22T10:30:30;10.30;99.90
1411;DHT22;700;51.906;8.404;2023-12-22T10:35:32;10.30;99.90
1411;DHT22;700;51.906;8.404;2023-12-22T10:40:33;10.20;99.90
1411;DHT22;700;51.906;8.404;2023-12-22T10:45:34;10.10;99.90
1411;DHT22;700;51.906;8.404;2023-12-22T10:50:34;9.80;99.90
1411;DHT22;700;51.906;8.404;2023-12-22T10:55:35;9.60;99.90
1411;DHT22;700;51.906;8.404;2023-12-22T11:00:40;9.70;99.90
1411;DHT22;700;51.906;8.404;2023-12-22T11:05:45;9.70;99.90
1411;DHT22;700;51.906;8.404;2023-12-22T11:10:55;9.70;99.90
1411;DHT22;700;51.906;8.404;2023-12-22T11:15:57;9.80;99.90
1411;DHT22;700;51.906;8.404;2023-12-22T11:20:58;9.70;99.90
1411;DHT22;700;51.906;8.404;2023-12-22T11:26:01;9.70;99.90
1411;DHT22;700;51.906;8.404;2023-12-22T11:31:07;9.80;99.90
1411;DHT22;700;51.906;8.404;2023-12-22T11:36:13;10.00;99.90
1411;DHT22;700;51.906;8.404;2023-12-22T11:41:29;10.20;99.90
1411;DHT22;700;51.906;8.404;2023-12-22T11:46:33;10.40;99.90
1411;DHT22;700;51.906;8.404;2023-12-22T11:51:35;10.40;99.90
1411;DHT22;700;51.906;8.404;2023-12-22T11:56:35;10.50;99.90
1411;DHT22;700;51.906;8.404;2023-12-22T12:01:38;10.40;99.90
1411;DHT22;700;51.906;8.404;2023-12-22T12:06:45;10.30;99.90
1411;DHT22;700;51.906;8.404;2023-12-22T12:17:08;10.20;99.90
1411;DHT22;700;51.906;8.404;2023-12-22T12:22:11;10.30;99.90
1411;DHT22;700;51.906;8.404;2023-12-22T12:27:20;10.30;99.90
1411;DHT22;700;51.906;8.404;2023-12-22T12:32:23;10.30;99.90
1411;DHT22;700;51.906;8.404;2023-12-22T12:37:25;10.30;99.90
1411;DHT22;700;51.906;8.404;2023-12-22T12:42:28;10.20;99.90
1411;DHT22;700;51.906;8.404;2023-12-22T12:47:29;10.30;99.90
1411;DHT22;700;51.906;8.404;2023-12-22T12:52:30;10.10;99.90
1411;DHT22;700;51.906;8.404;2023-12-22T12:57:33;10.20;99.90
1411;DHT22;700;51.906;8.404;2023-12-22T13:02:35;10.20;99.90
1411;DHT22;700;51.906;8.404;2023-12-22T13:07:39;10.20;99.90
1411;DHT22;700;51.906;8.404;2023-12-22T13:12:44;10.40;99.90
1411;DHT22;700;51.906;8.404;2023-12-22T13:17:46;10.20;99.90
1411;DHT22;700;51.906;8.404;2023-12-22T13:22:49;10.20;99.90
1411;DHT22;700;51.906;8.404;2023-12-22T13:27:51;10.20;99.90
1411;DHT22;700;51.906;8.404;2023-12-22T13:32:56;10.20;99.90
1411;DHT22;700;51.906;8.404;2023-12-22T13:37:59;10.20;99.90
1411;DHT22;700;51.906;8.404;2023-12-22T13:43:00;10.30;99.90
1411;DHT22;700;51.906;8.404;2023-12-22T13:48:04;10.00;99.90
1411;DHT22;700;51.906;8.404;2023-12-22T13:53:10;9.80;99.90
1411;DHT22;700;51.906;8.404;2023-12-22T13:58:11;9.80;99.90
1411;DHT22;700;51.906;8.404;2023-12-22T14:03:12;9.70;99.90
1411;DHT22;700;51.906;8.404;2023-12-22T14:08:13;9.70;99.90
1411;DHT22;700;51.906;8.404;2023-12-22T14:13:17;9.70;99.90
1411;DHT22;700;51.906;8.404;2023-12-22T14:18:17;9.80;99.90
1411;DHT22;700;51.906;8.404;2023-12-22T14:23:20;9.70;99.90
1411;DHT22;700;51.906;8.404;2023-12-22T14:28:25;9.80;99.90
1411;DHT22;700;51.906;8.404;2023-12-22T14:33:28;9.70;99.90
1411;DHT22;700;51.906;8.404;2023-12-22T14:38:31;9.70;99.90
1411;DHT22;700;51.906;8.404;2023-12-22T14:43:34;9.70;99.90
1411;DHT22;700;51.906;8.404;2023-12-22T14:48:35;9.70;99.90
1411;DHT22;700;51.906;8.404;2023-12-22T14:53:35;9.60;99.90
1411;DHT22;700;51.906;8.404;2023-12-22T14:58:38;9.70;99.90
1411;DHT22;700;51.906;8.404;2023-12-22T15:03:44;9.70;99.90
1411;DHT22;700;51.906;8.404;2023-12-22T15:08:49;9.70;99.90
1411;DHT22;700;51.906;8.404;2023-12-22T15:13:50;9.60;99.90
1411;DHT22;700;51.906;8.404;2023-12-22T15:18:50;9.70;99.90
1411;DHT22;700;51.906;8.404;2023-12-22T15:23:53;9.70;99.90
1411;DHT22;700;51.906;8.404;2023-12-22T15:28:59;9.60;99.90
1411;DHT22;700;51.906;8.404;2023-12-22T15:33:59;9.70;99.90
1411;DHT22;700;51.906;8.404;2023-12-22T15:39:00;9.70;99.90
1411;DHT22;700;51.906;8.404;2023-12-22T15:44:01;9.70;99.90
1411;DHT22;700;51.906;8.404;2023-12-22T15:49:01;9.70;99.90
1411;DHT22;700;51.906;8.404;2023-12-22T15:54:02;9.70;99.90
1411;DHT22;700;51.906;8.404;2023-12-22T15:59:07;9.70;99.90
1411;DHT22;700;51.906;8.404;2023-12-22T16:04:08;9.60;99.90
1411;DHT22;700;51.906;8.404;2023-12-22T16:09:11;9.70;99.90
1411;DHT22;700;51.906;8.404;2023-12-22T16:14:11;9.80;99.90
1411;DHT22;700;51.906;8.404;2023-12-22T16:19:13;9.70;99.90
1411;DHT22;700;51.906;8.404;2023-12-22T16:24:16;9.70;99.90
1411;DHT22;700;51.906;8.404;2023-12-22T16:29:23;9.70;99.90
1411;DHT22;700;51.906;8.404;2023-12-22T16:34:24;9.60;99.90
1411;DHT22;700;51.906;8.404;2023-12-22T16:39:24;9.70;99.90
1411;DHT22;700;51.906;8.404;2023-12-22T16:44:25;9.70;99.90
1411;DHT22;700;51.906;8.404;2023-12-22T16:49:28;9.80;99.90
1411;DHT22;700;51.906;8.404;2023-12-22T16:54:31;9.70;99.90
1411;DHT22;700;51.906;8.404;2023-12-22T16:59:34;9.70;99.90
1411;DHT22;700;51.906;8.404;2023-12-22T17:04:34;9.80;99.90
1411;DHT22;700;51.906;8.404;2023-12-22T17:09:38;9.80;99.90
1411;DHT22;700;51.906;8.404;2023-12-22T17:14:38;9.80;99.90
1411;DHT22;700;51.906;8.404;2023-12-22T17:19:41;9.80;99.90
1411;DHT22;700;51.906;8.404;2023-12-22T17:24:42;9.70;99.90
1411;DHT22;700;51.906;8.404;2023-12-22T17:29:44;9.80;99.90
1411;DHT22;700;51.906;8.404;2023-12-22T17:34:44;9.80;99.90
1411;DHT22;700;51.906;8.404;2023-12-22T17:39:45;9.80;99.90
1411;DHT22;700;51.906;8.404;2023-12-22T17:44:48;9.80;99.90
1411;DHT22;700;51.906;8.404;2023-12-22T17:49:48;9.90;99.90
1411;DHT22;700;51.906;8.404;2023-12-22T17:54:53;10.10;99.90
1411;DHT22;700;51.906;8.404;2023-12-22T17:59:54;10.20;99.90
1411;DHT22;700;51.906;8.404;2023-12-22T18:04:55;10.00;99.90
1411;DHT22;700;51.906;8.404;2023-12-22T18:10:00;9.80;99.90
1411;DHT22;700;51.906;8.404;2023-12-22T18:15:01;9.80;99.90
1411;DHT22;700;51.906;8.404;2023-12-22T18:20:05;9.70;99.90
1411;DHT22;700;51.906;8.404;2023-12-22T18:25:08;9.70;99.90
1411;DHT22;700;51.906;8.404;2023-12-22T18:30:11;9.60;99.90
1411;DHT22;700;51.906;8.404;2023-12-22T18:35:12;9.70;99.90
1411;DHT22;700;51.906;8.404;2023-12-22T18:40:15;9.80;99.90
1411;DHT22;700;51.906;8.404;2023-12-22T18:45:17;9.80;99.90
1411;DHT22;700;51.906;8.404;2023-12-22T18:50:20;9.80;99.90
1411;DHT22;700;51.906;8.404;2023-12-22T18:55:24;10.00;99.90
1411;DHT22;700;51.906;8.404;2023-12-22T19:00:27;10.10;99.90
1411;DHT22;700;51.906;8.404;2023-12-22T19:05:28;10.20;99.90
1411;DHT22;700;51.906;8.404;2023-12-22T19:10:29;10.20;99.90
1411;DHT22;700;51.906;8.404;2023-12-22T19:15:29;9.90;99.90
1411;DHT22;700;51.906;8.404;2023-12-22T19:20:33;9.80;99.90
1411;DHT22;700;51.906;8.404;2023-12-22T19:25:36;9.90;99.90
1411;DHT22;700;51.906;8.404;2023-12-22T19:30:37;9.90;99.90
1411;DHT22;700;51.906;8.404;2023-12-22T19:35:41;9.90;99.90
1411;DHT22;700;51.906;8.404;2023-12-22T19:40:42;10.10;99.90
1411;DHT22;700;51.906;8.404;2023-12-22T19:45:43;10.00;99.90
1411;DHT22;700;51.906;8.404;2023-12-22T19:50:46;10.10;99.90
1411;DHT22;700;51.906;8.404;2023-12-22T19:55:47;10.10;99.90
1411;DHT22;700;51.906;8.404;2023-12-22T20:00:48;10.00;99.90
1411;DHT22;700;51.906;8.404;2023-12-22T20:05:49;9.90;99.90
1411;DHT22;700;51.906;8.404;2023-12-22T20:10:49;9.70;99.90
1411;DHT22;700;51.906;8.404;2023-12-22T20:15:50;9.70;99.90
1411;DHT22;700;51.906;8.404;2023-12-22T20:20:57;9.60;99.90
1411;DHT22;700;51.906;8.404;2023-12-22T20:25:57;9.60;99.90
1411;DHT22;700;51.906;8.404;2023-12-22T20:30:58;9.60;99.90
1411;DHT22;700;51.906;8.404;2023-12-22T20:35:59;9.60;99.90
1411;DHT22;700;51.906;8.404;2023-12-22T20:40:59;9.60;99.90
1411;DHT22;700;51.906;8.404;2023-12-22T20:46:02;9.60;99.90
1411;DHT22;700;51.906;8.404;2023-12-22T20:51:05;9.70;99.90
1411;DHT22;700;51.906;8.404;2023-12-22T20:56:26;9.70;99.90
1411;DHT22;700;51.906;8.404;2023-12-22T21:01:31;9.80;99.90
1411;DHT22;700;51.906;8.404;2023-12-22T21:06:32;9.80;99.90
1411;DHT22;700;51.906;8.404;2023-12-22T21:11:32;9.80;99.90
1411;DHT22;700;51.906;8.404;2023-12-22T21:16:34;9.80;99.90
1411;DHT22;700;51.906;8.404;2023-12-22T21:21:43;9.70;99.90
1411;DHT22;700;51.906;8.404;2023-12-22T21:26:44;9.60;99.90
1411;DHT22;700;51.906;8.404;2023-12-22T21:31:45;9.60;99.90
1411;DHT22;700;51.906;8.404;2023-12-22T21:36:45;9.50;99.90
1411;DHT22;700;51.906;8.404;2023-12-22T21:41:49;9.60;99.90
1411;DHT22;700;51.906;8.404;2023-12-22T21:46:51;9.60;99.90
1411;DHT22;700;51.906;8.404;2023-12-22T21:51:54;9.60;99.90
1411;DHT22;700;51.906;8.404;2023-12-22T21:56:57;9.70;99.90
1411;DHT22;700;51.906;8.404;2023-12-22T22:02:01;9.60;99.90
1411;DHT22;700;51.906;8.404;2023-12-22T22:07:05;9.50;99.90
1411;DHT22;700;51.906;8.404;2023-12-22T22:12:06;9.40;99.90
1411;DHT22;700;51.906;8.404;2023-12-22T22:17:07;9.40;99.90
1411;DHT22;700;51.906;8.404;2023-12-22T22:22:07;9.50;99.90
1411;DHT22;700;51.906;8.404;2023-12-22T22:27:08;9.50;99.90
1411;DHT22;700;51.906;8.404;2023-12-22T22:32:11;9.60;99.90
1411;DHT22;700;51.906;8.404;2023-12-22T22:37:16;9.60;99.90
1411;DHT22;700;51.906;8.404;2023-12-22T22:42:19;9.50;99.90
1411;DHT22;700;51.906;8.404;2023-12-22T22:47:20;9.40;99.90
1411;DHT22;700;51.906;8.404;2023-12-22T22:52:20;9.30;99.90
1411;DHT22;700;51.906;8.404;2023-12-22T22:57:21;9.40;99.90
1411;DHT22;700;51.906;8.404;2023-12-22T23:02:24;9.30;99.90
1411;DHT22;700;51.906;8.404;2023-12-22T23:07:24;9.30;99.90
1411;DHT22;700;51.906;8.404;2023-12-22T23:12:25;9.20;99.90
1411;DHT22;700;51.906;8.404;2023-12-22T23:17:26;9.20;99.90
1411;DHT22;700;51.906;8.404;2023-12-22T23:22:27;9.20;99.90
1411;DHT22;700;51.906;8.404;2023-12-22T23:27:30;9.10;99.90
1411;DHT22;700;51.906;8.404;2023-12-22T23:32:31;9.00;99.90
1411;DHT22;700;51.906;8.404;2023-12-22T23:37:32;9.00;99.90
1411;DHT22;700;51.906;8.404;2023-12-22T23:42:33;8.90;99.90
1411;DHT22;700;51.906;8.404;2023-12-22T23:47:35;9.00;99.90
1411;DHT22;700;51.906;8.404;2023-12-22T23:52:36;9.10;99.90
1411;DHT22;700;51.906;8.404;2023-12-22T23:57:36;9.10;99.90
